Time;durP1;ratioP1;P1;durP2;ratioP2;P2;SDS_P1;SDS_P2;PMS_P1;PMS_P2;Temp;Humidity;BMP_temperature;BMP_pressure;BME280_temperature;BME280_humidity;BME280_pressure;Samples;Min_cycle;Max_cycle;Signal;HPM_P1;HPM_P2
2023/01/21 00:02:24;;;;;;;17.47;11.43;;;;;;;7.59;85.40;99071.38;5072071;28;20269;-54
2023/01/21 00:04:51;;;;;;;18.80;13.00;;;;;;;7.55;85.69;99068.75;5071790;28;20187;-55
2023/01/21 00:07:19;;;;;;;16.30;13.40;;;;;;;7.42;86.55;99071.84;5071891;28;20663;-54
2023/01/21 00:09:45;;;;;;;17.47;13.80;;;;;;;7.40;87.48;99074.38;5071886;28;20195;-55
2023/01/21 00:12:12;;;;;;;17.43;13.03;;;;;;;7.33;88.40;99075.09;5072032;28;20261;-55
2023/01/21 00:14:39;;;;;;;18.50;13.17;;;;;;;7.33;87.83;99069.97;5071980;28;20571;-54
2023/01/21 00:17:06;;;;;;;17.40;13.13;;;;;;;7.34;87.74;99073.38;5071420;28;20195;-55
2023/01/21 00:19:33;;;;;;;16.57;12.87;;;;;;;7.24;87.88;99085.09;5071947;28;20191;-54
2023/01/21 00:22:00;;;;;;;18.97;13.27;;;;;;;7.23;87.76;99085.03;5071828;28;20191;-55
2023/01/21 00:24:28;;;;;;;19.20;13.00;;;;;;;7.21;87.81;99077.34;5071630;28;20433;-54
2023/01/21 00:26:54;;;;;;;14.23;12.37;;;;;;;7.32;87.88;99087.81;5071366;28;20187;-54
2023/01/21 00:29:21;;;;;;;15.50;12.10;;;;;;;7.37;87.81;99091.31;5071504;28;20198;-55
2023/01/21 00:31:48;;;;;;;15.50;12.87;;;;;;;7.35;87.56;99090.44;5071294;28;20300;-55
2023/01/21 00:34:15;;;;;;;17.10;12.03;;;;;;;7.30;87.25;99081.81;5071314;28;20185;-55
2023/01/21 00:36:42;;;;;;;16.40;13.83;;;;;;;7.31;87.97;99088.63;5071356;28;20968;-55
2023/01/21 00:39:09;;;;;;;15.83;12.17;;;;;;;7.22;87.70;99086.75;5071536;28;20278;-55
2023/01/21 00:41:37;;;;;;;14.63;11.77;;;;;;;7.23;87.73;99093.56;5071933;28;20226;-55
2023/01/21 00:44:05;;;;;;;15.33;11.60;;;;;;;7.27;87.28;99102.19;5071156;28;20651;-55
2023/01/21 00:46:32;;;;;;;15.37;12.37;;;;;;;7.15;87.31;99087.44;5071539;28;20187;-55
2023/01/21 00:49:00;;;;;;;12.77;11.43;;;;;;;7.14;86.55;99113.81;5071794;28;20203;-55
2023/01/21 00:51:27;;;;;;;17.33;11.93;;;;;;;7.09;86.72;99106.03;5071424;28;20191;-55
2023/01/21 00:53:53;;;;;;;14.17;11.23;;;;;;;7.08;86.66;99098.34;5071294;28;20289;-55
2023/01/21 00:56:20;;;;;;;16.83;12.47;;;;;;;7.07;86.41;99104.28;5071228;28;20243;-55
2023/01/21 00:58:48;;;;;;;13.30;11.13;;;;;;;7.09;86.33;99087.28;5071179;28;20219;-55
2023/01/21 01:01:18;;;;;;;14.00;11.73;;;;;;;6.97;86.94;99092.13;5071047;28;20191;-55
2023/01/21 01:03:46;;;;;;;16.27;14.27;;;;;;;6.87;86.29;99090.16;5071398;28;20197;-55
2023/01/21 01:06:15;;;;;;;16.97;12.30;;;;;;;6.80;87.40;99089.16;5069592;28;20187;-56
2023/01/21 01:08:42;;;;;;;12.80;11.20;;;;;;;6.76;87.75;99081.38;5052095;28;20203;-56
2023/01/21 01:11:09;;;;;;;13.73;11.87;;;;;;;6.80;87.52;99075.53;5066432;28;20198;-55
2023/01/21 01:13:37;;;;;;;15.82;13.60;;;;;;;6.81;87.37;99084.91;5061286;28;20449;-55
2023/01/21 01:16:06;;;;;;;14.47;11.30;;;;;;;6.80;86.85;99073.84;5071134;28;20666;-55
2023/01/21 01:18:34;;;;;;;14.40;11.80;;;;;;;6.87;86.43;99079.94;5070980;28;20217;-55
2023/01/21 01:21:02;;;;;;;16.60;13.40;;;;;;;6.85;86.25;99072.25;5071193;28;20198;-55
2023/01/21 01:23:30;;;;;;;14.13;11.83;;;;;;;6.77;86.31;99057.56;5071298;28;20196;-55
2023/01/21 01:25:58;;;;;;;14.17;10.93;;;;;;;6.73;86.10;99076.22;5070847;28;20190;-55
2023/01/21 01:28:25;;;;;;;14.90;10.87;;;;;;;6.73;86.16;99068.56;5070778;28;20201;-55
2023/01/21 01:30:52;;;;;;;13.80;11.17;;;;;;;6.64;86.27;99063.22;5066845;28;20199;-56
2023/01/21 01:33:20;;;;;;;15.37;11.63;;;;;;;6.63;86.28;99061.47;5059749;28;20202;-55
2023/01/21 01:35:48;;;;;;;14.87;11.33;;;;;;;6.64;86.27;99070.88;5050967;28;20192;-55
2023/01/21 01:38:16;;;;;;;12.80;11.07;;;;;;;6.58;86.83;99074.13;5050806;28;20312;-56
2023/01/21 01:40:44;;;;;;;13.90;11.07;;;;;;;6.56;86.27;99067.28;5050728;28;20286;-55
2023/01/21 01:43:16;;;;;;;13.37;11.37;;;;;;;6.61;85.87;99071.66;5050618;28;20299;-55
2023/01/21 01:45:44;;;;;;;13.97;11.50;;;;;;;6.59;86.70;99064.78;5052991;28;20273;-55
2023/01/21 01:48:14;;;;;;;14.07;11.37;;;;;;;6.56;86.40;99063.03;5064490;28;20199;-56
2023/01/21 01:50:43;;;;;;;14.27;11.17;;;;;;;6.44;86.85;99053.38;5054031;28;20242;-55
2023/01/21 01:53:12;;;;;;;13.27;11.40;;;;;;;6.48;86.10;99057.72;5054097;28;20289;-56
2023/01/21 01:55:40;;;;;;;14.40;11.27;;;;;;;6.49;86.97;99049.25;5054171;28;20207;-55
2023/01/21 01:58:10;;;;;;;11.90;10.70;;;;;;;6.47;86.21;99058.56;5054287;28;20230;-55
2023/01/21 02:00:37;;;;;;;14.15;12.57;;;;;;;6.47;85.92;99058.56;5054274;28;20463;-55
2023/01/21 02:05:51;;;;;;;15.13;10.93;;;;;;;6.46;86.36;99063.59;5053961;28;20261;-55
2023/01/21 02:08:19;;;;;;;15.50;12.40;;;;;;;6.37;86.58;99068.50;5054073;28;20210;-56
2023/01/21 02:10:46;;;;;;;13.10;10.70;;;;;;;6.36;87.70;99066.75;5053882;28;20189;-55
2023/01/21 02:13:14;;;;;;;12.93;11.10;;;;;;;6.31;88.08;99058.13;5053933;28;20603;-55
2023/01/21 02:15:51;;;;;;;13.33;10.27;;;;;;;6.24;87.84;99053.69;5053867;28;20191;-55
2023/01/21 02:18:29;;;;;;;14.30;11.93;;;;;;;5.97;88.10;99028.31;5054000;28;20237;-55
2023/01/21 02:21:35;;;;;;;13.83;10.50;;;;;;;6.04;87.90;99035.31;5055079;28;20666;-56
2023/01/21 02:24:50;;;;;;;13.67;10.77;;;;;;;6.19;87.61;99065.44;5070299;28;20194;-56
2023/01/21 02:27:52;;;;;;;11.93;10.43;;;;;;;6.23;87.58;99068.16;5054941;28;20210;-55
2023/01/21 02:30:46;;;;;;;13.07;10.83;;;;;;;6.23;86.58;99075.78;5073594;28;20509;-56
2023/01/21 02:33:43;;;;;;;14.97;11.93;;;;;;;6.18;87.32;99079.88;5073573;28;20189;-56
2023/01/21 02:36:24;;;;;;;13.63;11.80;;;;;;;6.14;87.35;99075.53;5073410;28;20198;-55
2023/01/21 02:39:06;;;;;;;13.50;10.60;;;;;;;6.14;88.28;99070.44;5073422;28;20217;-55
2023/01/21 02:41:45;;;;;;;13.73;11.40;;;;;;;6.18;87.67;99072.22;5073131;28;20240;-55
2023/01/21 02:44:17;;;;;;;12.83;11.43;;;;;;;6.12;87.76;99063.56;5073717;28;20191;-55
2023/01/21 02:46:49;;;;;;;13.20;11.43;;;;;;;6.08;88.01;99072.81;5073477;28;20513;-55
2023/01/21 02:49:25;;;;;;;12.83;11.47;;;;;;;6.03;88.55;99063.31;5073356;28;20188;-55
2023/01/21 02:51:51;;;;;;;14.93;11.90;;;;;;;6.04;89.20;99055.72;5073806;28;20252;-55
2023/01/21 02:54:49;;;;;;;16.00;11.93;;;;;;;6.07;89.25;99053.22;5073362;28;20198;-56
2023/01/21 02:57:34;;;;;;;15.03;12.93;;;;;;;6.10;88.92;99038.00;5073153;28;20193;-55
2023/01/21 03:00:05;;;;;;;17.33;12.93;;;;;;;6.04;88.89;99039.56;5073145;28;20287;-55
2023/01/21 03:02:44;;;;;;;16.70;12.43;;;;;;;6.04;88.89;99048.06;5073893;28;20588;-55
2023/01/21 03:05:22;;;;;;;14.30;12.53;;;;;;;6.07;88.25;99048.13;5073348;28;20255;-54
2023/01/21 03:07:56;;;;;;;17.40;12.97;;;;;;;6.10;88.82;99044.81;5072372;28;20670;-55
2023/01/21 03:10:31;;;;;;;15.07;12.57;;;;;;;6.08;88.88;99042.22;5072750;28;20204;-55
2023/01/21 03:13:03;;;;;;;16.40;13.03;;;;;;;6.02;88.42;99052.25;5072701;28;20333;-55
2023/01/21 03:18:27;;;;;;;17.67;13.17;;;;;;;5.99;88.26;99051.31;5073036;28;20704;-55
2023/01/21 03:20:58;;;;;;;18.43;15.43;;;;;;;5.93;89.70;99062.22;5072547;28;20242;-55
2023/01/21 03:23:29;;;;;;;15.60;13.47;;;;;;;5.82;90.56;99048.28;5072530;28;20198;-55
2023/01/21 03:25:58;;;;;;;20.50;14.20;;;;;;;5.77;91.26;99049.81;5072817;28;20193;-55
2023/01/21 03:28:29;;;;;;;18.93;14.00;;;;;;;5.60;91.79;99044.28;5072324;28;20188;-55
2023/01/21 03:31:02;;;;;;;20.80;15.23;;;;;;;5.59;91.65;99045.06;5072446;28;20208;-55
2023/01/21 03:33:32;;;;;;;20.60;14.70;;;;;;;5.47;91.96;99039.63;5072215;28;20343;-55
2023/01/21 03:36:04;;;;;;;19.50;15.93;;;;;;;5.43;92.49;99036.94;5072206;28;20716;-57
2023/01/21 03:38:36;;;;;;;17.97;13.53;;;;;;;5.40;93.44;99034.31;5072083;28;20227;-55
2023/01/21 03:41:11;;;;;;;18.60;13.80;;;;;;;4.97;92.97;99014.38;5070633;28;20229;-55
2023/01/21 03:43:39;;;;;;;19.60;14.27;;;;;;;4.89;93.45;99018.38;5069457;28;20182;-56
2023/01/21 03:46:13;;;;;;;15.17;12.90;;;;;;;4.72;94.95;99022.94;5068776;28;20226;-55
2023/01/21 03:48:44;;;;;;;20.03;14.63;;;;;;;4.62;96.11;99038.69;5080587;28;20218;-55
2023/01/21 03:51:16;;;;;;;18.50;13.87;;;;;;;4.48;96.73;99038.25;5092233;28;20670;-55
2023/01/21 03:53:43;;;;;;;17.43;13.80;;;;;;;4.49;96.89;99049.28;5092237;28;20202;-54
2023/01/21 03:56:10;;;;;;;16.73;13.87;;;;;;;4.48;96.55;99047.56;5092102;28;20670;-55
2023/01/21 03:58:37;;;;;;;18.70;14.50;;;;;;;4.34;96.98;99058.97;5092600;28;20216;-55
2023/01/21 04:01:04;;;;;;;17.17;14.30;;;;;;;4.35;97.61;99073.41;5088045;28;20594;-55
2023/01/21 04:03:30;;;;;;;21.33;15.07;;;;;;;4.30;97.74;99059.66;5072307;28;20190;-55
2023/01/21 04:05:57;;;;;;;21.20;14.50;;;;;;;4.43;98.23;99072.84;5071614;28;20183;-55
2023/01/21 04:08:25;;;;;;;20.33;14.20;;;;;;;4.42;98.17;99072.81;5071560;28;20192;-55
2023/01/21 04:10:52;;;;;;;20.60;15.37;;;;;;;4.41;97.68;99076.16;5071753;28;20187;-55
2023/01/21 04:13:19;;;;;;;19.37;16.60;;;;;;;4.46;98.24;99069.53;5071509;28;20199;-55
2023/01/21 04:15:46;;;;;;;22.23;18.35;;;;;;;4.58;98.53;99080.13;5073200;28;20438;-55
2023/01/21 04:18:12;;;;;;;26.83;16.37;;;;;;;4.50;97.79;99086.66;5091911;28;20189;-55
2023/01/21 04:20:39;;;;;;;27.37;18.93;;;;;;;4.11;97.16;99020.06;5091895;28;20233;-55
2023/01/21 04:23:06;;;;;;;27.60;16.43;;;;;;;4.33;98.24;99080.13;5091847;28;20194;-55
2023/01/21 04:25:34;;;;;;;23.13;17.47;;;;;;;4.43;98.57;99075.38;5092565;28;20191;-56
2023/01/21 04:28:01;;;;;;;25.30;16.97;;;;;;;4.31;97.88;99074.13;5092005;28;20185;-56
2023/01/21 04:30:28;;;;;;;28.03;17.50;;;;;;;4.22;97.82;99089.94;5091929;28;20198;-54
2023/01/21 04:32:55;;;;;;;23.77;17.00;;;;;;;4.29;98.16;99093.53;5072405;28;20196;-54
2023/01/21 04:35:21;;;;;;;28.93;16.40;;;;;;;4.20;97.70;99106.81;5071597;28;20187;-54
2023/01/21 04:37:48;;;;;;;24.43;15.97;;;;;;;4.16;97.38;99087.16;5071341;28;20239;-55
2023/01/21 04:40:15;;;;;;;26.50;17.07;;;;;;;4.25;97.52;99077.31;5070961;28;20234;-55
2023/01/21 04:42:43;;;;;;;22.50;15.93;;;;;;;4.25;97.86;99092.56;5071459;28;20188;-55
2023/01/21 04:45:11;;;;;;;25.27;17.50;;;;;;;4.17;97.68;99088.91;5071388;28;20303;-55
2023/01/21 04:47:41;;;;;;;23.13;17.57;;;;;;;4.09;98.43;99081.00;5070453;28;20195;-55
2023/01/21 04:50:09;;;;;;;24.90;17.63;;;;;;;3.58;98.71;98990.25;5071603;28;20249;-55
2023/01/21 04:52:36;;;;;;;25.20;17.87;;;;;;;4.06;98.77;99069.88;5071270;28;20187;-55
2023/01/21 04:55:03;;;;;;;23.43;16.87;;;;;;;4.28;99.32;99077.44;5071043;28;20281;-55
2023/01/21 04:57:29;;;;;;;29.13;18.37;;;;;;;4.36;99.27;99088.72;5071306;28;20191;-55
2023/01/21 04:59:58;;;;;;;24.77;17.53;;;;;;;4.44;98.88;99087.31;5071199;28;20221;-55
2023/01/21 05:02:24;;;;;;;27.37;18.00;;;;;;;4.51;98.48;99081.59;5071485;28;20188;-55
2023/01/21 05:04:51;;;;;;;22.10;17.10;;;;;;;4.53;98.36;99079.97;5071384;28;20190;-55
2023/01/21 05:07:18;;;;;;;22.67;17.67;;;;;;;4.63;98.34;99089.63;5071135;28;20189;-55
2023/01/21 05:09:45;;;;;;;21.83;15.47;;;;;;;4.65;97.32;99092.22;5071028;28;20192;-55
2023/01/21 05:12:12;;;;;;;18.67;14.73;;;;;;;4.69;97.86;99089.84;5071360;28;20196;-55
2023/01/21 05:14:38;;;;;;;18.27;14.03;;;;;;;4.69;99.17;99106.78;5071150;28;20183;-55
2023/01/21 05:17:06;;;;;;;23.27;18.23;;;;;;;4.70;99.50;99126.31;5071284;28;20193;-55
2023/01/21 05:19:33;;;;;;;26.77;18.13;;;;;;;4.67;99.43;99100.75;5070337;28;20217;-55
2023/01/21 05:22:00;;;;;;;27.67;19.97;;;;;;;4.81;99.86;99121.59;5074792;28;20200;-55
2023/01/21 05:24:27;;;;;;;26.97;19.30;;;;;;;4.85;100.00;99131.03;5075516;28;20200;-54
2023/01/21 05:26:54;;;;;;;26.23;19.33;;;;;;;4.71;99.68;99123.84;5075020;28;20191;-55
2023/01/21 05:29:20;;;;;;;25.03;18.47;;;;;;;4.86;99.60;99122.59;5074768;28;20202;-55
2023/01/21 05:31:47;;;;;;;27.40;19.93;;;;;;;4.91;98.81;99116.84;5074571;28;20643;-55
2023/01/21 05:34:15;;;;;;;32.77;18.33;;;;;;;4.86;98.41;99114.97;5074811;28;20273;-55
2023/01/21 05:36:42;;;;;;;25.93;19.83;;;;;;;4.89;98.77;99118.47;5074547;28;20598;-55
2023/01/21 05:39:09;;;;;;;26.07;19.53;;;;;;;4.71;98.20;99090.75;5074691;28;20215;-56
2023/01/21 05:41:36;;;;;;;31.50;23.27;;;;;;;4.90;98.05;99110.03;5074531;28;20227;-55
2023/01/21 05:44:03;;;;;;;33.63;23.80;;;;;;;4.91;98.19;99111.75;5074546;28;20185;-55
2023/01/21 05:46:29;;;;;;;27.33;22.33;;;;;;;4.95;97.66;99112.69;5074592;28;20193;-54
2023/01/21 05:48:56;;;;;;;33.78;24.58;;;;;;;4.97;98.29;99124.66;5072777;28;20457;-54
2023/01/21 05:51:24;;;;;;;31.67;21.33;;;;;;;4.98;97.22;99123.84;5072871;28;20194;-56
2023/01/21 05:53:51;;;;;;;30.77;21.43;;;;;;;4.94;95.71;99123.72;5072961;28;20313;-55
2023/01/21 05:56:18;;;;;;;32.03;22.23;;;;;;;4.82;96.41;99125.84;5079594;28;20199;-56
2023/01/21 05:58:50;;;;;;;38.07;22.90;;;;;;;4.91;95.47;99141.44;5094077;28;20246;-55
2023/01/21 06:01:17;;;;;;;30.60;21.83;;;;;;;4.93;95.80;99145.75;5094231;28;20190;-55
2023/01/21 06:03:43;;;;;;;32.07;22.33;;;;;;;4.88;96.28;99142.19;5094568;28;20727;-55
2023/01/21 06:06:10;;;;;;;34.60;21.20;;;;;;;4.72;95.62;99143.34;5079099;28;20188;-55
2023/01/21 06:08:38;;;;;;;37.53;25.20;;;;;;;4.66;96.44;99143.16;5072930;28;20684;-56
2023/01/21 06:11:05;;;;;;;33.50;24.03;;;;;;;4.70;96.60;99139.03;5073709;28;20361;-55
2023/01/21 06:13:32;;;;;;;32.07;23.90;;;;;;;4.66;96.79;99142.31;5074213;28;20193;-55
2023/01/21 06:15:59;;;;;;;29.23;21.90;;;;;;;4.74;96.57;99144.28;5073840;28;20283;-55
2023/01/21 06:18:26;;;;;;;30.87;23.50;;;;;;;4.65;96.78;99138.00;5073730;28;20202;-55
2023/01/21 06:20:53;;;;;;;41.83;30.27;;;;;;;4.67;97.67;99146.56;5074086;28;20220;-55
2023/01/21 06:23:20;;;;;;;42.83;32.03;;;;;;;4.70;97.52;99134.81;5073918;28;20192;-55
2023/01/21 06:25:48;;;;;;;48.53;32.37;;;;;;;4.61;97.16;99136.19;5074083;28;20241;-55
2023/01/21 06:28:14;;;;;;;49.63;32.17;;;;;;;4.61;96.73;99118.38;5073664;28;20194;-55
2023/01/21 06:30:41;;;;;;;48.07;27.80;;;;;;;4.53;96.64;99102.84;5073202;28;20188;-55
2023/01/21 06:33:08;;;;;;;43.43;29.23;;;;;;;4.40;97.27;99107.47;5072698;28;20223;-56
2023/01/21 06:35:35;;;;;;;51.83;32.63;;;;;;;4.35;99.42;99126.78;5073327;28;20204;-55
2023/01/21 06:38:02;;;;;;;50.63;33.80;;;;;;;4.57;99.66;99140.31;5074367;28;20196;-56
2023/01/21 06:40:29;;;;;;;47.83;31.77;;;;;;;4.78;100.00;99157.97;5073297;28;20240;-56
2023/01/21 06:42:57;;;;;;;50.00;32.60;;;;;;;4.85;99.69;99144.66;5073574;28;20214;-55
2023/01/21 06:45:24;;;;;;;45.33;30.20;;;;;;;4.98;99.55;99172.22;5073652;28;20196;-55
2023/01/21 06:47:51;;;;;;;48.23;28.37;;;;;;;5.17;99.12;99179.63;5071317;28;20654;-56
2023/01/21 06:50:18;;;;;;;35.87;22.17;;;;;;;5.33;98.48;99164.03;5072867;28;20188;-55
2023/01/21 06:52:46;;;;;;;32.40;21.87;;;;;;;5.34;99.34;99172.53;5072561;28;20185;-55
2023/01/21 06:55:13;;;;;;;32.10;21.20;;;;;;;5.59;98.19;99174.16;5070246;28;20198;-55
2023/01/21 06:57:40;;;;;;;28.67;20.47;;;;;;;5.71;97.42;99185.56;5072597;28;20192;-55
2023/01/21 07:00:11;;;;;;;34.00;19.97;;;;;;;5.78;95.98;99200.25;5072328;28;20212;-56
2023/01/21 07:02:38;;;;;;;27.57;19.30;;;;;;;5.82;95.17;99188.47;5073111;28;20242;-55
2023/01/21 07:05:05;;;;;;;35.77;20.80;;;;;;;5.84;94.99;99189.38;5075775;28;20195;-55
2023/01/21 07:07:32;;;;;;;35.40;21.43;;;;;;;5.92;95.61;99188.81;5090189;28;20194;-56
2023/01/21 07:09:59;;;;;;;36.33;21.77;;;;;;;5.92;95.32;99183.72;5072819;28;20196;-55
2023/01/21 07:12:26;;;;;;;42.27;21.53;;;;;;;6.04;94.77;99195.97;5072841;28;20614;-55
2023/01/21 07:14:53;;;;;;;29.57;18.70;;;;;;;5.90;93.46;99199.81;5076885;28;20218;-56
2023/01/21 07:17:22;;;;;;;33.73;19.10;;;;;;;5.74;90.83;99215.41;5092801;28;20654;-55
2023/01/21 07:19:48;;;;;;;31.60;19.53;;;;;;;5.72;90.68;99194.09;5088171;28;20219;-54
2023/01/21 07:22:15;;;;;;;23.47;17.87;;;;;;;5.69;89.77;99182.13;5072606;28;20560;-54
2023/01/21 07:24:42;;;;;;;29.70;19.47;;;;;;;5.67;90.26;99180.34;5072299;28;20670;-55
2023/01/21 07:27:09;;;;;;;28.60;20.67;;;;;;;5.71;90.22;99197.47;5072381;28;20666;-55
2023/01/21 07:29:36;;;;;;;39.43;26.30;;;;;;;5.78;89.73;99207.91;5072104;28;20526;-56
2023/01/21 07:32:03;;;;;;;39.00;22.83;;;;;;;5.70;89.55;99193.19;5072243;28;20193;-56
2023/01/21 07:34:31;;;;;;;33.50;20.87;;;;;;;5.68;90.43;99192.28;5072617;28;20201;-55
2023/01/21 07:36:58;;;;;;;39.63;24.13;;;;;;;5.71;91.25;99194.94;5072058;28;20628;-55
2023/01/21 07:39:25;;;;;;;36.13;24.33;;;;;;;5.69;91.39;99201.66;5071543;28;20724;-56
2023/01/21 07:41:51;;;;;;;45.20;25.10;;;;;;;5.36;92.53;99145.41;5071780;28;20220;-55
2023/01/21 07:44:18;;;;;;;35.13;23.33;;;;;;;5.80;92.21;99218.13;5071284;28;20194;-55
2023/01/21 07:46:45;;;;;;;44.37;26.33;;;;;;;5.78;93.02;99196.84;5072098;28;20188;-55
2023/01/21 07:49:16;;;;;;;38.23;24.87;;;;;;;5.94;93.12;99204.16;5072191;28;20201;-56
2023/01/21 07:51:44;;;;;;;47.67;26.73;;;;;;;6.02;92.55;99209.47;5072487;28;20193;-56
2023/01/21 07:54:12;;;;;;;45.43;27.27;;;;;;;6.07;92.26;99211.34;5072294;28;20190;-55
2023/01/21 07:56:39;;;;;;;41.13;26.23;;;;;;;6.13;92.16;99211.53;5071776;28;20217;-60
2023/01/21 07:59:06;;;;;;;43.77;25.63;;;;;;;6.25;92.17;99209.34;5071119;28;20268;-55
2023/01/21 08:01:32;;;;;;;38.43;24.53;;;;;;;6.36;91.71;99218.16;5071592;28;20223;-55
2023/01/21 08:03:59;;;;;;;38.00;24.73;;;;;;;6.42;91.62;99213.22;5071983;28;20201;-55
2023/01/21 08:06:26;;;;;;;40.80;25.13;;;;;;;6.56;90.80;99216.16;5072597;28;20207;-55
2023/01/21 08:08:54;;;;;;;42.27;25.63;;;;;;;6.67;90.69;99213.91;5072024;28;20258;-55
2023/01/21 08:11:21;;;;;;;44.07;25.77;;;;;;;6.65;90.69;99230.88;5071797;28;20648;-55
2023/01/21 08:13:49;;;;;;;39.03;24.50;;;;;;;6.63;90.11;99227.38;5071595;28;20190;-55
2023/01/21 08:16:16;;;;;;;35.77;23.00;;;;;;;6.71;90.42;99211.44;5071661;28;20200;-55
2023/01/21 08:18:43;;;;;;;41.07;25.47;;;;;;;6.75;90.62;99213.28;5072091;28;20569;-55
2023/01/21 08:21:09;;;;;;;42.57;27.60;;;;;;;6.89;91.18;99211.97;5071607;28;20227;-55
2023/01/21 08:23:36;;;;;;;49.47;29.97;;;;;;;7.01;89.78;99212.25;5071501;28;20194;-55
2023/01/21 08:26:05;;;;;;;41.57;26.40;;;;;;;7.09;89.22;99210.75;5071650;28;20672;-55
2023/01/21 08:28:33;;;;;;;42.17;26.93;;;;;;;7.20;88.54;99193.13;5071356;28;20221;-56
2023/01/21 08:31:04;;;;;;;42.43;25.53;;;;;;;7.22;87.44;99205.97;5071401;28;20289;-55
2023/01/21 08:33:31;;;;;;;36.13;24.60;;;;;;;7.26;87.71;99203.50;5064367;28;20202;-55
2023/01/21 08:36:02;;;;;;;38.03;23.73;;;;;;;7.32;87.94;99211.34;5051466;28;20588;-54
2023/01/21 08:38:29;;;;;;;38.57;23.60;;;;;;;7.34;87.63;99206.25;5051370;28;20199;-54
2023/01/21 08:40:57;;;;;;;36.37;24.00;;;;;;;7.39;86.47;99214.91;5051604;28;20235;-55
2023/01/21 08:43:26;;;;;;;41.93;26.83;;;;;;;7.35;85.94;99215.66;5051096;28;20892;-55
2023/01/21 08:45:56;;;;;;;39.70;25.60;;;;;;;7.42;85.50;99208.16;5051318;28;20282;-55
2023/01/21 08:48:23;;;;;;;39.43;26.37;;;;;;;7.32;85.82;99225.81;5051582;28;20245;-56
2023/01/21 08:50:49;;;;;;;36.03;25.07;;;;;;;7.42;86.29;99220.94;5051236;28;20268;-55
2023/01/21 08:53:16;;;;;;;43.93;26.63;;;;;;;7.35;86.34;99213.09;5051268;28;20188;-55
2023/01/21 08:55:43;;;;;;;37.73;25.57;;;;;;;7.40;86.36;99191.94;5055100;28;20277;-55
2023/01/21 08:58:10;;;;;;;45.30;31.80;;;;;;;7.56;87.06;99201.69;5054839;28;20435;-56
2023/01/21 09:00:40;;;;;;;39.97;25.77;;;;;;;7.71;85.99;99202.06;5054944;28;20268;-55
2023/01/21 09:03:07;;;;;;;39.07;25.47;;;;;;;7.72;85.97;99180.75;5055127;28;20192;-55
2023/01/21 09:05:34;;;;;;;40.67;25.93;;;;;;;7.65;85.91;99191.69;5054768;28;20235;-55
2023/01/21 09:08:01;;;;;;;38.73;24.83;;;;;;;7.71;85.91;99191.81;5055140;28;20635;-55
2023/01/21 09:13:12;;;;;;;44.03;26.30;;;;;;;7.78;84.99;99174.91;5075175;28;20196;-55
2023/01/21 09:15:41;;;;;;;44.27;27.30;;;;;;;7.79;84.82;99165.56;5075024;28;20551;-55
2023/01/21 09:18:08;;;;;;;39.23;26.20;;;;;;;7.87;85.28;99179.38;5074792;28;20191;-55
2023/01/21 09:20:35;;;;;;;42.90;25.30;;;;;;;7.94;85.17;99181.25;5075334;28;20642;-55
2023/01/21 09:23:22;;;;;;;39.23;25.93;;;;;;;8.06;84.58;99161.00;5074945;28;20192;-56
2023/01/21 09:25:49;;;;;;;39.20;26.17;;;;;;;8.20;83.86;99162.16;5074479;28;20191;-56
2023/01/21 09:28:16;;;;;;;43.47;27.63;;;;;;;8.19;83.49;99168.09;5074632;28;20715;-56
2023/01/21 09:30:44;;;;;;;46.20;31.63;;;;;;;8.06;84.10;99178.94;5073555;28;20437;-56
2023/01/21 09:33:11;;;;;;;41.50;28.50;;;;;;;8.03;83.16;99155.84;5074373;28;20191;-55
2023/01/21 09:35:38;;;;;;;41.67;29.23;;;;;;;8.08;83.24;99160.22;5074386;28;20191;-55
2023/01/21 09:38:05;;;;;;;39.87;26.43;;;;;;;8.06;84.25;99155.91;5074302;28;20191;-55
2023/01/21 09:40:32;;;;;;;44.23;25.97;;;;;;;7.99;84.72;99170.28;5074609;28;20233;-55
2023/01/21 09:43:09;;;;;;;41.57;25.83;;;;;;;7.92;84.88;99163.28;5074533;28;20259;-56
2023/01/21 09:45:36;;;;;;;42.43;26.80;;;;;;;7.99;85.05;99149.81;5074218;28;20191;-55
2023/01/21 09:48:07;;;;;;;47.27;27.43;;;;;;;8.00;84.60;99173.69;5074845;28;20197;-55
2023/01/21 09:50:38;;;;;;;49.97;30.80;;;;;;;8.06;84.57;99171.25;5074587;28;20192;-55
2023/01/21 09:53:16;;;;;;;36.27;27.07;;;;;;;8.09;84.79;99168.75;5074895;28;20194;-55
2023/01/21 09:55:49;;;;;;;49.37;29.53;;;;;;;8.14;84.62;99160.34;5074304;28;20186;-55
2023/01/21 09:58:23;;;;;;;45.70;29.07;;;;;;;8.22;84.08;99138.34;5073939;28;20205;-55
2023/01/21 10:00:55;;;;;;;41.80;28.60;;;;;;;8.40;84.12;99143.00;5073839;28;20210;-55
2023/01/21 10:03:32;;;;;;;49.83;29.30;;;;;;;8.44;83.72;99131.97;5073813;28;20187;-55
2023/01/21 10:06:11;;;;;;;52.20;35.55;;;;;;;8.52;83.70;99122.72;5072148;28;20430;-55
2023/01/21 10:08:50;;;;;;;44.13;29.80;;;;;;;8.56;83.11;99139.00;5073451;28;20194;-62
2023/01/21 10:11:33;;;;;;;45.03;28.70;;;;;;;8.56;83.85;99131.31;5073426;28;20617;-56
2023/01/21 10:14:38;;;;;;;42.97;27.83;;;;;;;8.47;83.98;99114.09;5073573;28;20599;-56
2023/01/21 10:17:10;;;;;;;41.63;27.10;;;;;;;8.67;84.18;99133.25;5074204;28;20559;-56
2023/01/21 10:19:43;;;;;;;44.37;28.00;;;;;;;8.78;84.52;99116.38;5073346;28;20260;-56
2023/01/21 10:22:16;;;;;;;39.17;27.00;;;;;;;8.99;83.26;99115.84;5073415;28;20226;-56
2023/01/21 10:24:47;;;;;;;40.63;27.10;;;;;;;9.12;81.91;99116.94;5073233;28;20187;-55
2023/01/21 10:27:17;;;;;;;44.17;27.93;;;;;;;9.15;81.22;99112.69;5073426;28;20260;-55
2023/01/21 10:29:43;;;;;;;39.03;26.73;;;;;;;9.07;80.58;99092.91;5073303;28;20201;-55
2023/01/21 10:32:17;;;;;;;40.33;26.93;;;;;;;9.20;80.90;99097.41;5073487;28;20251;-55
2023/01/21 10:34:50;;;;;;;40.63;26.60;;;;;;;9.23;80.62;99087.19;5073609;28;20381;-56
2023/01/21 10:37:24;;;;;;;43.10;28.13;;;;;;;9.30;80.00;99083.88;5073249;28;20672;-55
2023/01/21 10:39:58;;;;;;;44.37;27.17;;;;;;;9.26;80.07;99069.28;5073546;28;20638;-55
2023/01/21 10:42:53;;;;;;;39.80;25.90;;;;;;;9.48;79.50;99063.63;5073299;28;20227;-54
2023/01/21 10:45:29;;;;;;;37.03;25.20;;;;;;;9.58;79.08;99060.34;5073144;28;20199;-54
2023/01/21 10:48:04;;;;;;;40.83;26.57;;;;;;;9.69;78.29;99057.91;5072943;28;20211;-55
2023/01/21 10:50:43;;;;;;;41.33;26.67;;;;;;;9.80;78.16;99064.03;5072943;28;20195;-55
2023/01/21 10:53:20;;;;;;;36.70;24.33;;;;;;;9.85;77.97;99062.38;5073386;28;20260;-55
2023/01/21 10:55:59;;;;;;;37.57;25.97;;;;;;;10.00;77.41;99052.28;5072894;28;20187;-55
2023/01/21 10:58:33;;;;;;;41.40;26.53;;;;;;;9.99;77.10;99056.59;5072961;28;20568;-55
2023/01/21 11:01:05;;;;;;;38.73;25.07;;;;;;;9.98;77.49;99057.41;5070589;28;20248;-56
2023/01/21 11:03:37;;;;;;;42.57;26.13;;;;;;;9.74;77.92;99022.91;5070780;28;20195;-55
2023/01/21 11:06:08;;;;;;;41.95;29.05;;;;;;;10.05;77.88;99046.38;5070177;28;20426;-55
2023/01/21 11:08:35;;;;;;;38.10;26.60;;;;;;;10.20;77.53;99043.16;5080718;28;20248;-55
2023/01/21 11:11:03;;;;;;;40.93;26.57;;;;;;;10.15;77.52;99033.69;5088022;28;20206;-54
2023/01/21 11:13:30;;;;;;;40.63;27.43;;;;;;;10.28;77.63;99022.69;5072257;28;20191;-54
2023/01/21 11:15:59;;;;;;;40.47;26.00;;;;;;;10.28;76.97;99012.41;5072349;28;20195;-55
2023/01/21 11:18:30;;;;;;;42.33;27.40;;;;;;;10.32;77.36;99035.56;5072518;28;20616;-54
2023/01/21 11:21:00;;;;;;;37.70;27.87;;;;;;;10.41;76.84;99038.22;5072947;28;20284;-55
2023/01/21 11:23:30;;;;;;;38.27;28.10;;;;;;;10.31;76.60;99035.53;5071860;28;20191;-55
2023/01/21 11:26:01;;;;;;;39.17;27.20;;;;;;;10.36;77.13;99033.88;5071063;28;20195;-54
2023/01/21 11:28:30;;;;;;;38.77;27.30;;;;;;;10.45;76.71;99032.28;5071762;28;20207;-55
2023/01/21 11:31:08;;;;;;;40.13;27.73;;;;;;;10.61;76.33;99056.38;5071546;28;20229;-55
2023/01/21 11:33:36;;;;;;;39.23;26.07;;;;;;;10.50;76.19;99055.41;5071986;28;20245;-55
2023/01/21 11:36:15;;;;;;;36.37;26.37;;;;;;;10.44;77.39;99039.94;5072296;28;20208;-55
2023/01/21 11:38:45;;;;;;;38.30;26.23;;;;;;;10.34;77.61;99038.16;5075189;28;20263;-55
2023/01/21 11:41:19;;;;;;;37.63;26.20;;;;;;;10.41;77.45;99034.81;5069387;28;20591;-55
2023/01/21 11:43:48;;;;;;;38.40;26.57;;;;;;;10.03;77.44;98959.94;5070223;28;20193;-56
2023/01/21 11:46:35;;;;;;;40.93;27.13;;;;;;;10.46;77.06;98999.75;5071394;28;20253;-56